首页
METAR-TAF:

METAR-TAF

机场 :

阿拉木图国际机场

阿拉木圖, 哈萨克斯坦

纬度: 43-14N, 经度: 076-56E, 海拔: 847米

当前天气观测

该预报发布于24分钟前的17:30 UTC
风速4节,风向
温度 22°C
湿度 43%
气压 1007 hPa
能见度10公里或以上
散云层高于5000英尺, 积雨云.
多云层高于10000英尺

METAR: UAAA 231730Z 19002MPS 9999 SCT050CB BKN100 22/09 Q1007 R23L/CLRD65 NOSIG

时间: 23:54 (17:54 UTC)

预报

该预报发布于54分钟前的17:00 UTC
预报有效从23日的 18点(UTC)到 24日的 18点(UTC)
风速10节,风向西南
能见度10公里或以上
多云层高于5000英尺, 积雨云.
多云层高于10000英尺
短暂存在
从 23日的 18点(UTC)到 24日的 06点(UTC)
风速25节,风向多变
雷暴, 小雨, 飑
成为
从 24日的 06点(UTC)到 24日的 07点(UTC)
风速10节,风向西
多云层高于2000英尺, 积雨云.
多云层高于10000英尺
短暂存在
从 24日的 06点(UTC)到 24日的 18点(UTC)
风速33节,风向多变
能見度: 3000
雷暴, 雨, 飑

TAF: UAAA 231700Z 2318/2418 22005MPS 9999 BKN050CB BKN100 TX30/2409Z TN17/2401Z TEMPO 2318/2406 VRB13MPS -TSRA SQ BECMG 2406/2407 28005MPS BKN020CB BKN100 TEMPO 2406/2418 VRB17MPS 3000 TSRA SQ

超过4000个机场的气象观测和天气预报(METAR&TAF报告)。

可查询的气象台以黄色和红色小点在地图上表示。

将鼠标移到小点上方,可查看气象台名称。

然后点击查看天气观测和预报。

如需切换地图:点击带黑十字的绿色按钮放大地图;点击带横线的绿色按钮缩小地图;或者点击绿色箭头查看邻近地区的地图。


METAR-TAF: